createdAt,value
2022-11-20T00:00:51.370Z,-2.01
2022-11-20T00:03:18.353Z,-2.33
2022-11-20T00:05:45.480Z,-2.37
2022-11-20T00:08:12.801Z,-2.17
2022-11-20T00:10:42.483Z,-2.09
2022-11-20T00:13:09.191Z,-2.04
2022-11-20T00:15:35.761Z,-2.24
2022-11-20T00:18:02.405Z,-2.13
2022-11-20T00:20:28.996Z,-2.15
2022-11-20T00:22:55.785Z,-2.19
2022-11-20T00:25:22.494Z,-2.23
2022-11-20T00:27:49.057Z,-2.13
2022-11-20T00:30:15.939Z,-2.08
2022-11-20T00:32:42.682Z,-2.01
2022-11-20T00:35:09.504Z,-1.94
2022-11-20T00:37:36.153Z,-1.91
2022-11-20T00:40:02.880Z,-2.42
2022-11-20T00:42:29.769Z,-2.30
2022-11-20T00:44:56.460Z,-2.24
2022-11-20T00:47:23.070Z,-2.29
2022-11-20T00:49:49.647Z,-2.27
2022-11-20T00:52:16.216Z,-2.35
2022-11-20T00:54:42.865Z,-2.29
2022-11-20T00:57:09.447Z,-2.39
2022-11-20T00:59:36.140Z,-2.35
2022-11-20T01:02:02.950Z,-2.25
2022-11-20T01:04:30.117Z,-2.19
2022-11-20T01:06:56.701Z,-2.11
2022-11-20T01:09:23.691Z,-2.09
2022-11-20T01:11:50.482Z,-2.06
2022-11-20T01:14:20.088Z,-2.03
2022-11-20T01:16:49.202Z,-2.06
2022-11-20T01:19:21.037Z,-2.02
2022-11-20T01:21:51.293Z,-2.60
2022-11-20T01:24:20.043Z,-2.77
2022-11-20T01:26:49.482Z,-2.79
2022-11-20T01:29:20.290Z,-2.56
2022-11-20T01:31:47.217Z,-2.54
2022-11-20T01:34:16.703Z,-2.47
2022-11-20T01:36:45.205Z,-2.36
2022-11-20T01:39:18.130Z,-2.20
2022-11-20T01:42:09.641Z,-2.33
2022-11-20T01:44:49.255Z,-2.75
2022-11-20T01:47:22.073Z,-2.85
2022-11-20T01:49:53.677Z,-2.70
2022-11-20T01:52:25.167Z,-2.61
2022-11-20T01:55:01.467Z,-2.63
2022-11-20T01:57:31.778Z,-2.61
2022-11-20T02:00:05.284Z,-2.49
2022-11-20T02:02:41.779Z,-2.52
2022-11-20T02:05:34.879Z,-2.41
2022-11-20T02:08:03.271Z,-2.39
2022-11-20T02:10:30.712Z,-2.34
2022-11-20T02:13:16.277Z,-2.55
2022-11-20T02:15:43.909Z,-2.77
2022-11-20T02:18:12.593Z,-2.91
2022-11-20T02:20:43.245Z,-2.85
2022-11-20T02:23:17.870Z,-2.68
2022-11-20T02:25:46.926Z,-2.84
2022-11-20T02:28:14.137Z,-2.95
2022-11-20T02:30:40.938Z,-2.79
2022-11-20T02:33:07.780Z,-2.83
2022-11-20T02:35:34.488Z,-2.78
2022-11-20T02:38:03.616Z,-2.91
2022-11-20T02:40:30.547Z,-2.81
2022-11-20T02:42:57.871Z,-2.66
2022-11-20T02:45:25.690Z,-2.74
2022-11-20T02:47:52.722Z,-2.85
2022-11-20T02:50:19.454Z,-2.86
2022-11-20T02:52:46.270Z,-2.89
2022-11-20T02:55:13.150Z,-2.91
2022-11-20T02:57:39.774Z,-2.96
2022-11-20T03:00:07.932Z,-2.96
2022-11-20T03:02:34.745Z,-3.49
2022-11-20T03:05:01.992Z,-3.23
2022-11-20T03:07:28.686Z,-3.25
2022-11-20T03:09:55.416Z,-3.16
2022-11-20T03:12:22.078Z,-3.09
2022-11-20T03:14:52.763Z,-2.94
2022-11-20T03:17:20.104Z,-2.88
2022-11-20T03:19:46.738Z,-2.79
2022-11-20T03:22:13.301Z,-2.79
2022-11-20T03:24:39.964Z,-3.12
2022-11-20T03:27:06.530Z,-3.26
2022-11-20T03:29:33.496Z,-3.28
2022-11-20T03:32:00.140Z,-3.31
2022-11-20T03:34:26.856Z,-3.11
2022-11-20T03:36:53.429Z,-3.30
2022-11-20T03:39:20.494Z,-3.31
2022-11-20T03:41:47.382Z,-3.26
2022-11-20T03:44:13.942Z,-3.28
2022-11-20T03:46:40.657Z,-3.04
2022-11-20T03:49:07.907Z,-3.25
2022-11-20T03:51:36.719Z,-3.36
2022-11-20T03:54:08.210Z,-3.47
2022-11-20T03:56:37.747Z,-3.41
2022-11-20T03:59:04.780Z,-3.27
2022-11-20T04:01:34.701Z,-3.26
2022-11-20T04:04:02.011Z,-3.38
2022-11-20T04:06:30.947Z,-3.28
2022-11-20T04:08:59.019Z,-3.49
2022-11-20T04:11:31.554Z,-3.42
2022-11-20T04:14:00.425Z,-3.42
2022-11-20T04:16:29.989Z,-3.29
2022-11-20T04:18:57.690Z,-3.36
2022-11-20T04:21:24.858Z,-3.36
2022-11-20T04:23:51.973Z,-3.26
2022-11-20T04:26:18.512Z,-3.29
2022-11-20T04:28:45.464Z,-3.36
2022-11-20T04:31:13.794Z,-3.27
2022-11-20T04:33:40.490Z,-3.20
2022-11-20T04:36:08.200Z,-3.34
2022-11-20T04:38:34.995Z,-3.37
2022-11-20T04:41:02.370Z,-3.33
2022-11-20T04:43:28.939Z,-3.36
2022-11-20T04:45:56.207Z,-3.30
2022-11-20T04:48:23.139Z,-3.66
2022-11-20T04:50:49.611Z,-3.98
2022-11-20T04:53:16.092Z,-3.94
2022-11-20T04:55:42.846Z,-3.64
2022-11-20T04:58:09.458Z,-3.71
2022-11-20T05:00:36.133Z,-3.72
2022-11-20T05:03:02.609Z,-3.76
2022-11-20T05:05:29.156Z,-3.73
2022-11-20T05:07:58.754Z,-3.65
2022-11-20T05:10:28.542Z,-3.60
2022-11-20T05:12:55.025Z,-3.51
2022-11-20T05:15:21.583Z,-3.72
2022-11-20T05:17:49.182Z,-3.71
2022-11-20T05:20:15.915Z,-3.88
2022-11-20T05:22:42.448Z,-3.83
2022-11-20T05:25:09.048Z,-3.72
2022-11-20T05:27:35.582Z,-3.55
2022-11-20T05:30:02.384Z,-3.48
2022-11-20T05:32:28.852Z,-3.55
2022-11-20T05:34:55.284Z,-3.56
2022-11-20T05:37:21.799Z,-3.52
2022-11-20T05:39:48.287Z,-3.59
2022-11-20T05:42:33.187Z,-3.50
2022-11-20T05:45:00.208Z,-3.51
2022-11-20T05:47:32.320Z,-3.47
2022-11-20T05:49:58.850Z,-3.42
2022-11-20T05:52:25.575Z,-3.39
2022-11-20T05:54:52.157Z,-3.36
2022-11-20T05:57:18.580Z,-3.37
2022-11-20T05:59:45.139Z,-3.42
2022-11-20T06:02:11.763Z,-3.36
2022-11-20T06:04:38.361Z,-3.36
2022-11-20T06:07:06.501Z,-3.38
2022-11-20T06:09:33.228Z,-3.28
2022-11-20T06:11:59.716Z,-3.41
2022-11-20T06:14:26.151Z,-3.45
2022-11-20T06:16:52.653Z,-3.41
2022-11-20T06:19:19.291Z,-3.43
2022-11-20T06:21:45.947Z,-3.43
2022-11-20T06:24:12.518Z,-3.46
2022-11-20T06:26:39.163Z,-3.31
2022-11-20T06:29:05.597Z,-3.39
2022-11-20T06:31:35.799Z,-3.50
2022-11-20T06:34:02.254Z,-3.56
2022-11-20T06:36:28.672Z,-3.49
2022-11-20T06:38:55.139Z,-3.37
2022-11-20T06:41:22.444Z,-3.30
2022-11-20T06:43:49.024Z,-3.26
2022-11-20T06:46:18.477Z,-3.10
2022-11-20T06:48:45.363Z,-3.22
2022-11-20T06:51:12.050Z,-3.14
2022-11-20T06:53:38.758Z,-3.50
2022-11-20T06:56:06.082Z,-3.42
2022-11-20T06:58:33.178Z,-3.23
2022-11-20T07:01:00.375Z,-3.22
2022-11-20T07:03:27.039Z,-3.07
2022-11-20T07:05:55.684Z,-2.96
2022-11-20T07:08:22.084Z,-3.07
2022-11-20T07:10:48.583Z,-3.04
2022-11-20T07:13:15.193Z,-3.13
2022-11-20T07:15:41.641Z,-3.10
2022-11-20T07:18:08.213Z,-2.96
2022-11-20T07:20:34.789Z,-2.79
2022-11-20T07:23:01.240Z,-2.94
2022-11-20T07:25:28.478Z,-2.92
2022-11-20T07:28:01.284Z,-3.10
2022-11-20T07:30:28.776Z,-3.18
2022-11-20T07:32:56.311Z,-3.12
2022-11-20T07:35:23.767Z,-2.98
2022-11-20T07:37:50.234Z,-2.95
2022-11-20T07:40:17.305Z,-2.86
2022-11-20T07:42:50.980Z,-2.65
2022-11-20T07:45:18.068Z,-2.53
2022-11-20T07:47:44.595Z,-2.72
2022-11-20T07:50:11.605Z,-3.05
2022-11-20T07:52:38.272Z,-3.12
2022-11-20T07:55:05.008Z,-2.78
2022-11-20T07:57:31.585Z,-2.63
2022-11-20T07:59:58.068Z,-3.01
2022-11-20T08:02:24.531Z,-2.65
2022-11-20T08:04:51.137Z,-2.56
2022-11-20T08:07:17.656Z,-2.48
2022-11-20T08:09:44.196Z,-2.46
2022-11-20T08:12:36.644Z,-2.36
2022-11-20T08:15:06.122Z,-2.46
2022-11-20T08:17:35.000Z,-2.56
2022-11-20T08:20:01.567Z,-2.37
2022-11-20T08:22:28.155Z,-2.28
2022-11-20T08:24:54.578Z,-2.53
2022-11-20T08:27:21.020Z,-2.08
2022-11-20T08:29:47.509Z,-2.04
2022-11-20T08:32:13.938Z,-1.84
2022-11-20T08:34:40.468Z,-1.85
2022-11-20T08:37:06.961Z,-1.80
2022-11-20T08:39:33.423Z,-1.68
2022-11-20T08:42:00.017Z,-1.55
2022-11-20T08:44:26.511Z,-1.59
2022-11-20T08:46:52.987Z,-1.65
2022-11-20T08:49:20.104Z,-1.58
2022-11-20T08:51:49.283Z,-1.43
2022-11-20T08:54:16.151Z,-1.31
2022-11-20T08:56:42.652Z,-1.27
2022-11-20T09:01:55.662Z,-1.44
2022-11-20T09:04:22.281Z,-1.45
2022-11-20T09:06:51.890Z,-1.22
2022-11-20T09:09:19.671Z,-1.00
2022-11-20T09:11:46.368Z,-1.05
2022-11-20T09:14:12.920Z,-1.05
2022-11-20T09:16:39.429Z,-1.13
2022-11-20T09:19:40.939Z,-1.16
2022-11-20T09:21:58.264Z,-1.03
2022-11-20T09:24:26.143Z,-0.86
2022-11-20T09:26:52.742Z,-0.75
2022-11-20T09:29:19.800Z,-0.73
2022-11-20T09:31:46.456Z,-0.58
2022-11-20T09:34:13.043Z,-0.25
2022-11-20T09:36:39.628Z,-0.27
2022-11-20T09:39:06.136Z,-0.19
2022-11-20T09:41:48.832Z,-0.17
2022-11-20T09:44:27.531Z,0.04
2022-11-20T09:46:56.795Z,0.16
2022-11-20T09:49:42.243Z,0.15
2022-11-20T09:52:27.543Z,0.06
2022-11-20T09:54:54.421Z,0.17
2022-11-20T09:57:26.394Z,0.21
2022-11-20T10:00:01.353Z,0.15
2022-11-20T10:02:43.396Z,0.24
2022-11-20T10:05:16.514Z,0.58
2022-11-20T10:08:01.436Z,0.43
2022-11-20T10:10:31.049Z,0.53
2022-11-20T10:13:12.741Z,0.89
2022-11-20T10:15:42.363Z,0.97
2022-11-20T10:18:19.898Z,1.05
2022-11-20T10:20:55.567Z,1.24
2022-11-20T10:23:31.179Z,1.17
2022-11-20T10:26:16.436Z,0.96
2022-11-20T10:28:55.405Z,1.13
2022-11-20T10:31:41.677Z,1.27
2022-11-20T10:34:22.428Z,1.50
2022-11-20T10:37:16.009Z,1.57
2022-11-20T10:39:48.924Z,1.63
2022-11-20T10:42:18.320Z,1.67
2022-11-20T10:45:04.470Z,1.59
2022-11-20T10:47:37.187Z,1.76
2022-11-20T10:50:06.852Z,1.81
2022-11-20T10:52:36.375Z,1.79
2022-11-20T10:55:21.811Z,1.78
2022-11-20T10:57:51.404Z,2.03
2022-11-20T11:00:18.422Z,1.98
2022-11-20T11:02:49.227Z,2.02
2022-11-20T11:05:22.270Z,2.12
2022-11-20T11:07:56.978Z,2.32
2022-11-20T11:10:39.153Z,2.44
2022-11-20T11:13:05.696Z,2.66
2022-11-20T11:15:39.761Z,2.81
2022-11-20T11:18:09.583Z,3.03
2022-11-20T11:20:37.301Z,2.92
2022-11-20T11:23:03.869Z,2.87
2022-11-20T11:25:31.765Z,2.88
2022-11-20T11:27:59.901Z,3.19
2022-11-20T11:30:27.100Z,3.06
2022-11-20T11:33:09.614Z,3.35
2022-11-20T11:35:39.986Z,3.35
2022-11-20T11:38:08.431Z,3.51
2022-11-20T11:40:36.195Z,3.48
2022-11-20T11:43:28.039Z,3.27
2022-11-20T11:45:55.814Z,3.56
2022-11-20T11:48:22.470Z,3.52
2022-11-20T11:50:49.955Z,3.59
2022-11-20T11:53:21.459Z,3.77
2022-11-20T11:55:55.871Z,3.62
2022-11-20T11:58:25.468Z,3.70
2022-11-20T12:01:24.742Z,3.41
2022-11-20T12:04:11.746Z,3.27
2022-11-20T12:06:39.323Z,3.41
2022-11-20T12:09:09.410Z,3.41
2022-11-20T12:11:54.321Z,3.64
2022-11-20T12:14:35.545Z,3.53
2022-11-20T12:17:02.970Z,3.77
2022-11-20T12:19:35.126Z,4.04
2022-11-20T12:22:05.013Z,3.97
2022-11-20T12:24:31.966Z,4.00
2022-11-20T12:26:58.548Z,4.24
2022-11-20T12:29:43.924Z,4.37
2022-11-20T12:32:16.844Z,4.46
2022-11-20T12:34:43.650Z,4.21
2022-11-20T12:37:29.132Z,4.19
2022-11-20T12:39:58.734Z,3.94
2022-11-20T12:42:50.492Z,4.21
2022-11-20T12:45:43.243Z,4.19
2022-11-20T12:48:12.984Z,4.37
2022-11-20T12:51:14.422Z,4.35
2022-11-20T12:54:01.903Z,4.40
2022-11-20T12:56:28.495Z,4.39
2022-11-20T12:59:10.464Z,4.61
2022-11-20T13:01:48.684Z,4.56
2022-11-20T13:04:15.106Z,4.57
2022-11-20T13:06:42.595Z,4.78
2022-11-20T13:09:15.267Z,4.73
2022-11-20T13:11:51.360Z,4.86
2022-11-20T13:14:25.818Z,4.80
2022-11-20T13:17:06.070Z,4.92
2022-11-20T13:19:33.316Z,4.76
2022-11-20T13:21:59.754Z,4.61
2022-11-20T13:24:28.585Z,4.69
2022-11-20T13:27:06.055Z,4.68
2022-11-20T13:29:33.353Z,4.67
2022-11-20T13:32:15.257Z,4.64
2022-11-20T13:34:52.590Z,4.62
2022-11-20T13:37:33.611Z,4.57
2022-11-20T13:40:12.573Z,4.50
2022-11-20T13:42:59.468Z,4.49
2022-11-20T13:45:27.460Z,4.69
2022-11-20T13:47:54.950Z,4.66
2022-11-20T13:51:32.050Z,4.58
2022-11-20T13:56:17.288Z,4.44
2022-11-20T13:59:14.599Z,4.41
2022-11-20T14:01:46.294Z,4.44
2022-11-20T14:04:21.463Z,4.49
2022-11-20T14:06:50.156Z,4.55
2022-11-20T14:09:28.986Z,4.50
2022-11-20T14:11:55.692Z,4.34
2022-11-20T14:14:26.076Z,4.33
2022-11-20T14:16:54.429Z,4.50
2022-11-20T14:19:25.987Z,4.53
2022-11-20T14:22:12.589Z,4.38
2022-11-20T14:24:39.528Z,4.23
2022-11-20T14:27:12.812Z,4.14
2022-11-20T14:29:49.097Z,4.26
2022-11-20T14:32:18.268Z,4.13
2022-11-20T14:34:47.472Z,4.18
2022-11-20T14:37:20.674Z,4.22
2022-11-20T14:39:53.454Z,4.10
2022-11-20T14:42:21.530Z,3.99
2022-11-20T14:44:50.520Z,4.09
2022-11-20T14:47:22.018Z,4.08
2022-11-20T14:49:50.316Z,4.12
2022-11-20T14:52:27.232Z,4.01
2022-11-20T14:55:00.683Z,4.12
2022-11-20T14:57:30.214Z,4.06
2022-11-20T15:00:15.386Z,4.09
2022-11-20T15:02:47.103Z,4.07
2022-11-20T15:05:14.760Z,3.90
2022-11-20T15:07:46.722Z,3.88
2022-11-20T15:10:24.597Z,4.04
2022-11-20T15:13:06.109Z,3.81
2022-11-20T15:15:44.890Z,3.80
2022-11-20T15:18:16.762Z,3.82
2022-11-20T15:20:44.591Z,3.93
2022-11-20T15:23:13.591Z,3.86
2022-11-20T15:25:43.618Z,3.65
2022-11-20T15:28:22.029Z,3.89
2022-11-20T15:30:50.515Z,3.94
2022-11-20T15:33:18.364Z,3.90
2022-11-20T15:35:45.489Z,3.87
2022-11-20T15:38:12.123Z,3.89
2022-11-20T15:40:38.848Z,3.90
2022-11-20T15:43:12.648Z,3.84
2022-11-20T15:45:50.552Z,3.81
2022-11-20T15:48:20.664Z,3.57
2022-11-20T15:51:04.161Z,3.87
2022-11-20T15:53:30.839Z,3.83
2022-11-20T15:55:57.460Z,3.80
2022-11-20T15:58:25.172Z,3.82
2022-11-20T16:00:52.048Z,3.96
2022-11-20T16:03:19.259Z,3.59
2022-11-20T16:05:45.873Z,3.58
2022-11-20T16:08:12.519Z,3.57
2022-11-20T16:10:40.164Z,3.74
2022-11-20T16:13:33.833Z,3.67
2022-11-20T16:16:14.154Z,3.75
2022-11-20T16:18:42.191Z,3.64
2022-11-20T16:21:14.067Z,3.46
2022-11-20T16:23:41.609Z,3.52
2022-11-20T16:26:12.398Z,3.55
2022-11-20T16:28:39.151Z,3.63
2022-11-20T16:31:17.653Z,3.63
2022-11-20T16:33:44.318Z,3.63
2022-11-20T16:36:12.751Z,3.64
2022-11-20T16:38:39.962Z,3.66
2022-11-20T16:41:07.302Z,3.72
2022-11-20T16:43:34.397Z,3.54
2022-11-20T16:46:04.492Z,3.35
2022-11-20T16:48:31.082Z,3.27
2022-11-20T16:50:57.697Z,3.33
2022-11-20T16:53:24.336Z,3.32
2022-11-20T16:55:50.929Z,3.45
2022-11-20T16:58:17.695Z,3.40
2022-11-20T17:00:51.187Z,3.42
2022-11-20T17:03:19.205Z,3.37
2022-11-20T17:05:46.052Z,3.32
2022-11-20T17:08:12.592Z,3.59
2022-11-20T17:10:39.216Z,3.44
2022-11-20T17:13:05.778Z,3.43
2022-11-20T17:15:32.388Z,3.33
2022-11-20T17:17:58.982Z,3.34
2022-11-20T17:20:25.561Z,3.36
2022-11-20T17:22:52.092Z,3.43
2022-11-20T17:25:18.842Z,3.45
2022-11-20T17:27:45.451Z,3.49
2022-11-20T17:30:12.142Z,3.58
2022-11-20T17:32:39.812Z,3.70
2022-11-20T17:35:06.644Z,3.55
2022-11-20T17:37:33.444Z,3.60
2022-11-20T17:40:00.183Z,3.44
2022-11-20T17:42:26.777Z,3.32
2022-11-20T17:44:53.684Z,3.51
2022-11-20T17:47:20.811Z,3.58
2022-11-20T17:49:54.386Z,3.48
2022-11-20T17:52:22.664Z,3.55
2022-11-20T17:54:49.256Z,3.33
2022-11-20T17:57:34.233Z,3.56
2022-11-20T18:00:00.856Z,3.63
2022-11-20T18:02:27.630Z,3.53
2022-11-20T18:04:54.255Z,3.68
2022-11-20T18:07:20.933Z,3.60
2022-11-20T18:09:47.541Z,3.60
2022-11-20T18:12:14.230Z,3.74
2022-11-20T18:14:41.759Z,3.79
2022-11-20T18:17:11.863Z,3.48
2022-11-20T18:19:48.036Z,3.32
2022-11-20T18:22:31.422Z,3.02
2022-11-20T18:24:58.366Z,3.19
2022-11-20T18:27:25.013Z,3.30
2022-11-20T18:29:52.321Z,3.08
2022-11-20T18:32:22.760Z,3.00
2022-11-20T18:34:50.007Z,2.83
2022-11-20T18:37:16.980Z,2.66
2022-11-20T18:39:44.065Z,2.25
2022-11-20T18:42:34.520Z,2.39
2022-11-20T18:45:05.144Z,2.41
2022-11-20T18:47:37.299Z,2.40
2022-11-20T18:50:05.752Z,2.04
2022-11-20T18:52:35.183Z,2.05
2022-11-20T18:55:02.896Z,2.18
2022-11-20T18:57:29.962Z,2.00
2022-11-20T19:00:03.486Z,1.96
2022-11-20T19:02:34.471Z,1.87
2022-11-20T19:05:05.364Z,2.03
2022-11-20T19:07:32.010Z,1.90
2022-11-20T19:10:03.462Z,2.07
2022-11-20T19:12:30.760Z,1.86
2022-11-20T19:14:57.671Z,1.89
2022-11-20T19:17:24.245Z,2.07
2022-11-20T19:19:51.181Z,2.03
2022-11-20T19:22:17.894Z,2.19
2022-11-20T19:24:44.465Z,2.15
2022-11-20T19:27:11.074Z,2.02
2022-11-20T19:29:38.456Z,2.04
2022-11-20T19:32:05.192Z,1.94
2022-11-20T19:34:31.914Z,2.00
2022-11-20T19:37:00.659Z,1.93
2022-11-20T19:39:27.430Z,1.85
2022-11-20T19:41:54.252Z,1.54
2022-11-20T19:44:21.006Z,1.77
2022-11-20T19:46:47.767Z,2.02
2022-11-20T19:49:14.910Z,1.99
2022-11-20T19:51:49.423Z,1.96
2022-11-20T19:54:16.985Z,1.94
2022-11-20T19:56:45.249Z,1.69
2022-11-20T19:59:12.228Z,1.66
2022-11-20T20:01:39.639Z,1.92
2022-11-20T20:04:07.161Z,2.05
2022-11-20T20:06:36.179Z,2.05
2022-11-20T20:09:06.141Z,2.13
2022-11-20T20:11:34.324Z,1.93
2022-11-20T20:14:05.963Z,1.87
2022-11-20T20:16:32.630Z,1.79
2022-11-20T20:19:01.733Z,1.65
2022-11-20T20:21:30.511Z,1.66
2022-11-20T20:23:58.162Z,1.83
2022-11-20T20:26:26.020Z,1.84
2022-11-20T20:28:52.829Z,1.58
2022-11-20T20:31:23.062Z,1.88
2022-11-20T20:33:50.015Z,1.51
2022-11-20T20:36:19.115Z,1.73
2022-11-20T20:38:46.506Z,1.88
2022-11-20T20:41:19.478Z,1.63
2022-11-20T20:44:05.134Z,1.62
2022-11-20T20:46:32.168Z,1.65
2022-11-20T20:48:59.663Z,1.66
2022-11-20T20:51:26.262Z,1.64
2022-11-20T20:53:53.758Z,1.84
2022-11-20T20:56:20.416Z,1.70
2022-11-20T20:58:46.974Z,1.94
2022-11-20T21:01:15.606Z,1.62
2022-11-20T21:03:42.335Z,1.59
2022-11-20T21:06:10.494Z,1.64
2022-11-20T21:08:40.608Z,1.68
2022-11-20T21:11:11.085Z,2.01
2022-11-20T21:13:39.162Z,2.05
2022-11-20T21:16:06.157Z,1.89
2022-11-20T21:18:33.341Z,1.87
2022-11-20T21:21:19.115Z,2.21
2022-11-20T21:23:46.701Z,2.06
2022-11-20T21:26:14.712Z,1.95
2022-11-20T21:28:42.156Z,2.07
2022-11-20T21:31:12.017Z,2.06
2022-11-20T21:33:42.634Z,2.36
2022-11-20T21:36:11.106Z,2.47
2022-11-20T21:38:37.732Z,2.38
2022-11-20T21:41:06.331Z,2.09
2022-11-20T21:43:33.211Z,2.10
2022-11-20T21:46:02.699Z,2.25
2022-11-20T21:48:31.183Z,2.31
2022-11-20T21:51:07.013Z,2.17
2022-11-20T21:53:34.260Z,2.14
2022-11-20T21:56:01.124Z,2.25
2022-11-20T21:58:28.319Z,2.12
2022-11-20T22:00:55.051Z,2.15
2022-11-20T22:03:22.041Z,2.04
2022-11-20T22:05:56.613Z,2.16
2022-11-20T22:08:24.147Z,2.08
2022-11-20T22:10:59.136Z,2.01
2022-11-20T22:13:45.373Z,2.10
2022-11-20T22:16:12.586Z,1.96
2022-11-20T22:18:46.830Z,2.06
2022-11-20T22:21:15.455Z,2.04
2022-11-20T22:23:42.459Z,2.01
2022-11-20T22:26:14.523Z,2.02
2022-11-20T22:28:41.146Z,1.97
2022-11-20T22:31:10.047Z,1.61
2022-11-20T22:33:38.630Z,2.02
2022-11-20T22:36:06.578Z,2.16
2022-11-20T22:38:39.074Z,2.20
2022-11-20T22:41:16.444Z,2.00
2022-11-20T22:43:44.552Z,2.07
2022-11-20T22:46:13.040Z,1.73
2022-11-20T22:48:41.895Z,1.92
2022-11-20T22:51:14.022Z,1.92
2022-11-20T22:53:42.501Z,2.16
2022-11-20T22:56:12.472Z,1.94
2022-11-20T22:58:40.876Z,2.06
2022-11-20T23:01:18.948Z,2.00
2022-11-20T23:03:48.419Z,1.54
2022-11-20T23:06:18.447Z,1.88
2022-11-20T23:08:45.954Z,1.95
2022-11-20T23:11:18.208Z,1.97
2022-11-20T23:13:45.825Z,1.77
2022-11-20T23:16:17.657Z,1.96
2022-11-20T23:18:44.768Z,1.95
2022-11-20T23:21:13.520Z,1.64
2022-11-20T23:23:41.048Z,1.48
2022-11-20T23:26:10.998Z,1.47
2022-11-20T23:28:39.111Z,1.61
2022-11-20T23:31:06.363Z,1.50
2022-11-20T23:33:36.470Z,1.67
2022-11-20T23:36:03.909Z,1.59
2022-11-20T23:38:30.838Z,1.80
2022-11-20T23:40:57.692Z,1.31
2022-11-20T23:43:24.404Z,1.24
2022-11-20T23:45:57.442Z,1.60
2022-11-20T23:48:28.215Z,1.69
2022-11-20T23:50:55.140Z,1.68
2022-11-20T23:53:23.053Z,1.88
2022-11-20T23:55:54.625Z,1.79
2022-11-20T23:58:23.003Z,1.76
